createdAt,value
2022-12-18T00:01:15.595Z,75.95
2022-12-18T00:03:42.482Z,76.31
2022-12-18T00:06:09.259Z,76.73
2022-12-18T00:08:35.824Z,77.14
2022-12-18T00:11:07.082Z,76.13
2022-12-18T00:13:34.023Z,76.72
2022-12-18T00:16:05.168Z,76.70
2022-12-18T00:18:32.239Z,76.38
2022-12-18T00:21:03.880Z,75.99
2022-12-18T00:23:31.259Z,76.72
2022-12-18T00:26:06.635Z,76.96
2022-12-18T00:28:33.586Z,76.64
2022-12-18T00:31:11.525Z,76.72
2022-12-18T00:33:39.206Z,76.16
2022-12-18T00:36:08.577Z,77.01
2022-12-18T00:38:35.283Z,76.13
2022-12-18T00:41:02.279Z,76.44
2022-12-18T00:43:28.817Z,76.67
2022-12-18T00:45:55.343Z,76.65
2022-12-18T00:48:22.234Z,76.24
2022-12-18T00:50:49.812Z,76.87
2022-12-18T00:53:16.528Z,76.63
2022-12-18T00:55:43.688Z,76.82
2022-12-18T00:58:11.061Z,76.51
2022-12-18T01:00:37.665Z,75.99
2022-12-18T01:03:04.993Z,76.52
2022-12-18T01:05:31.758Z,76.66
2022-12-18T01:07:58.702Z,76.86
2022-12-18T01:10:25.902Z,76.21
2022-12-18T01:12:52.755Z,76.22
2022-12-18T01:15:20.157Z,76.01
2022-12-18T01:17:46.776Z,76.52
2022-12-18T01:20:13.883Z,76.60
2022-12-18T01:22:40.321Z,76.54
2022-12-18T01:25:06.980Z,76.20
2022-12-18T01:27:35.039Z,76.70
2022-12-18T01:30:01.517Z,76.89
2022-12-18T01:32:31.413Z,76.90
2022-12-18T01:34:58.027Z,76.62
2022-12-18T01:37:24.415Z,76.83
2022-12-18T01:39:50.927Z,76.76
2022-12-18T01:42:18.168Z,77.17
2022-12-18T01:45:06.060Z,76.81
2022-12-18T01:47:46.435Z,76.77
2022-12-18T01:50:17.690Z,76.45
2022-12-18T01:52:48.884Z,77.03
2022-12-18T01:55:19.195Z,76.73
2022-12-18T01:57:46.017Z,76.67
2022-12-18T02:00:16.410Z,76.45
2022-12-18T02:02:44.929Z,75.84
2022-12-18T02:05:13.798Z,76.44
2022-12-18T02:07:52.407Z,76.40
2022-12-18T02:10:42.612Z,76.44
2022-12-18T02:13:12.060Z,75.82
2022-12-18T02:15:59.727Z,76.31
2022-12-18T02:18:33.521Z,76.19
2022-12-18T02:21:09.256Z,76.28
2022-12-18T02:23:53.469Z,75.82
2022-12-18T02:26:26.883Z,76.10
2022-12-18T02:29:08.829Z,75.71
2022-12-18T02:31:42.242Z,76.11
2022-12-18T02:34:10.211Z,76.19
2022-12-18T02:36:41.527Z,75.48
2022-12-18T02:39:11.849Z,75.09
2022-12-18T02:41:39.631Z,74.62
2022-12-18T02:44:12.358Z,75.17
2022-12-18T02:46:45.317Z,74.81
2022-12-18T02:49:30.397Z,75.21
2022-12-18T02:52:13.487Z,75.12
2022-12-18T02:54:48.857Z,75.76
2022-12-18T02:57:36.441Z,76.20
2022-12-18T03:00:26.747Z,75.81
2022-12-18T03:03:03.615Z,75.63
2022-12-18T03:05:42.016Z,75.05
2022-12-18T03:08:13.487Z,75.54
2022-12-18T03:10:46.921Z,75.21
2022-12-18T03:13:20.940Z,75.18
2022-12-18T03:15:51.787Z,75.59
2022-12-18T03:18:26.795Z,75.54
2022-12-18T03:20:57.858Z,75.40
2022-12-18T03:23:29.743Z,74.94
2022-12-18T03:26:05.851Z,75.01
2022-12-18T03:28:37.931Z,74.89
2022-12-18T03:31:08.071Z,75.13
2022-12-18T03:33:51.829Z,74.87
2022-12-18T03:36:18.815Z,75.08
2022-12-18T03:38:45.272Z,75.61
2022-12-18T03:41:17.776Z,75.44
2022-12-18T03:44:21.861Z,75.49
2022-12-18T03:47:07.794Z,75.86
2022-12-18T03:50:12.299Z,76.10
2022-12-18T03:52:45.535Z,74.95
2022-12-18T03:55:13.149Z,75.68
2022-12-18T03:57:40.483Z,75.80
2022-12-18T04:00:11.544Z,75.57
2022-12-18T04:02:42.104Z,75.87
2022-12-18T04:05:10.641Z,75.03
2022-12-18T04:07:39.247Z,75.49
2022-12-18T04:10:07.930Z,75.87
2022-12-18T04:12:34.307Z,75.76
2022-12-18T04:15:00.709Z,74.94
2022-12-18T04:17:27.099Z,75.63
2022-12-18T04:19:53.476Z,76.11
2022-12-18T04:22:19.820Z,75.93
2022-12-18T04:24:46.991Z,76.25
2022-12-18T04:27:13.566Z,76.26
2022-12-18T04:29:39.950Z,76.63
2022-12-18T04:32:06.711Z,77.02
2022-12-18T04:34:33.068Z,76.36
2022-12-18T04:36:59.455Z,75.77
2022-12-18T04:39:25.892Z,75.85
2022-12-18T04:41:52.592Z,75.97
2022-12-18T04:44:19.196Z,76.53
2022-12-18T04:46:45.674Z,76.17
2022-12-18T04:49:12.146Z,75.79
2022-12-18T04:51:38.642Z,75.53
2022-12-18T04:54:05.180Z,75.98
2022-12-18T04:56:32.767Z,76.04
2022-12-18T04:58:59.131Z,75.97
2022-12-18T05:01:30.923Z,76.14
2022-12-18T05:04:00.861Z,75.34
2022-12-18T05:06:27.253Z,75.73
2022-12-18T05:08:53.654Z,75.57
2022-12-18T05:11:20.068Z,74.82
2022-12-18T05:13:46.711Z,75.41
2022-12-18T05:16:14.459Z,76.08
2022-12-18T05:18:41.353Z,75.75
2022-12-18T05:21:07.743Z,76.13
2022-12-18T05:23:34.227Z,75.06
2022-12-18T05:26:03.268Z,75.37
2022-12-18T05:28:31.199Z,75.34
2022-12-18T05:31:01.690Z,75.45
2022-12-18T05:33:31.168Z,75.93
2022-12-18T05:35:59.971Z,75.64
2022-12-18T05:38:28.288Z,75.63
2022-12-18T05:40:55.022Z,75.83
2022-12-18T05:43:22.809Z,76.32
2022-12-18T05:45:49.966Z,76.18
2022-12-18T05:48:17.325Z,76.13
2022-12-18T05:50:48.086Z,76.12
2022-12-18T05:53:21.017Z,76.40
2022-12-18T05:55:48.228Z,76.53
2022-12-18T05:58:15.866Z,76.54
2022-12-18T06:00:44.646Z,76.31
2022-12-18T06:03:12.973Z,76.55
2022-12-18T06:05:42.385Z,75.78
2022-12-18T06:08:09.475Z,76.32
2022-12-18T06:10:36.473Z,76.70
2022-12-18T06:13:02.935Z,76.57
2022-12-18T06:15:29.492Z,76.98
2022-12-18T06:17:55.838Z,77.90
2022-12-18T06:20:23.144Z,77.97
2022-12-18T06:22:49.630Z,78.08
2022-12-18T06:25:16.162Z,78.88
2022-12-18T06:27:42.542Z,78.63
2022-12-18T06:30:10.308Z,78.63
2022-12-18T06:32:36.659Z,78.82
2022-12-18T06:35:03.150Z,78.99
2022-12-18T06:37:31.429Z,79.28
2022-12-18T06:39:57.800Z,79.33
2022-12-18T06:42:25.006Z,78.53
2022-12-18T06:44:51.480Z,79.20
2022-12-18T06:47:17.871Z,78.86
2022-12-18T06:49:44.338Z,79.05
2022-12-18T06:52:10.784Z,78.88
2022-12-18T06:54:37.168Z,78.95
2022-12-18T06:57:03.645Z,78.87
2022-12-18T06:59:30.130Z,78.72
2022-12-18T07:01:56.751Z,78.80
2022-12-18T07:04:23.174Z,79.30
2022-12-18T07:06:49.575Z,78.94
2022-12-18T07:09:15.950Z,79.34
2022-12-18T07:11:42.609Z,79.18
2022-12-18T07:14:08.983Z,78.73
2022-12-18T07:16:35.453Z,78.83
2022-12-18T07:19:01.843Z,78.16
2022-12-18T07:21:28.546Z,78.11
2022-12-18T07:23:54.963Z,78.42
2022-12-18T07:26:22.646Z,78.23
2022-12-18T07:28:49.958Z,77.69
2022-12-18T07:31:19.762Z,78.36
2022-12-18T07:33:48.419Z,78.25
2022-12-18T07:36:15.618Z,77.89
2022-12-18T07:38:42.144Z,77.82
2022-12-18T07:41:12.030Z,77.59
2022-12-18T07:43:39.928Z,78.21
2022-12-18T07:46:07.955Z,77.98
2022-12-18T07:48:34.373Z,77.66
2022-12-18T07:51:05.289Z,77.11
2022-12-18T07:53:32.550Z,77.39
2022-12-18T07:56:26.719Z,77.29
2022-12-18T07:58:52.509Z,77.39
2022-12-18T08:01:19.025Z,77.48
2022-12-18T08:03:45.485Z,77.45
2022-12-18T08:06:11.934Z,77.89
2022-12-18T08:08:38.324Z,77.47
2022-12-18T08:11:04.963Z,77.37
2022-12-18T08:13:31.300Z,77.60
2022-12-18T08:16:16.718Z,77.06
2022-12-18T08:18:43.015Z,77.31
2022-12-18T08:21:21.829Z,77.00
2022-12-18T08:23:48.595Z,76.53
2022-12-18T08:26:16.252Z,76.49
2022-12-18T08:28:43.380Z,76.43
2022-12-18T08:31:10.785Z,75.47
2022-12-18T08:33:39.022Z,75.60
2022-12-18T08:36:06.501Z,74.71
2022-12-18T08:38:34.232Z,74.89
2022-12-18T08:41:01.220Z,74.50
2022-12-18T08:43:46.517Z,74.48
2022-12-18T08:46:13.153Z,74.40
2022-12-18T08:48:39.618Z,74.39
2022-12-18T08:51:06.140Z,73.50
2022-12-18T08:53:35.614Z,73.44
2022-12-18T08:56:02.744Z,72.47
2022-12-18T08:58:29.357Z,72.16
2022-12-18T09:01:01.075Z,71.83
2022-12-18T09:03:27.457Z,72.08
2022-12-18T09:05:53.837Z,71.71
2022-12-18T09:08:20.253Z,71.66
2022-12-18T09:10:49.328Z,71.49
2022-12-18T09:13:16.919Z,70.93
2022-12-18T09:15:52.589Z,70.69
2022-12-18T09:18:20.936Z,70.27
2022-12-18T09:20:47.401Z,69.93
2022-12-18T09:23:13.911Z,69.67
2022-12-18T09:25:40.935Z,69.01
2022-12-18T09:28:12.540Z,68.81
2022-12-18T09:30:45.451Z,67.72
2022-12-18T09:33:12.016Z,66.76
2022-12-18T09:35:40.069Z,66.71
2022-12-18T09:38:07.269Z,66.45
2022-12-18T09:40:42.664Z,65.66
2022-12-18T09:43:17.990Z,66.24
2022-12-18T09:45:50.682Z,65.02
2022-12-18T09:48:24.417Z,64.54
2022-12-18T09:50:52.452Z,63.90
2022-12-18T09:53:25.465Z,62.41
2022-12-18T09:55:53.049Z,63.19
2022-12-18T09:58:40.704Z,62.14
2022-12-18T10:01:17.368Z,61.57
2022-12-18T10:03:43.858Z,63.24
2022-12-18T10:06:21.999Z,62.56
2022-12-18T10:09:05.624Z,62.13
2022-12-18T10:11:44.518Z,61.59
2022-12-18T10:14:43.487Z,61.70
2022-12-18T10:17:16.330Z,61.50
2022-12-18T10:19:53.044Z,61.10
2022-12-18T10:22:27.507Z,60.76
2022-12-18T10:25:46.434Z,60.42
2022-12-18T10:28:18.947Z,60.22
2022-12-18T10:30:45.634Z,59.21
2022-12-18T10:33:18.919Z,59.34
2022-12-18T10:35:47.117Z,58.91
2022-12-18T10:38:13.456Z,57.98
2022-12-18T10:40:55.775Z,58.41
2022-12-18T10:43:25.316Z,57.48
2022-12-18T10:46:23.981Z,57.85
2022-12-18T10:48:58.569Z,58.02
2022-12-18T10:51:30.314Z,57.11
2022-12-18T10:54:06.439Z,56.48
2022-12-18T10:56:36.726Z,56.61
2022-12-18T10:59:05.895Z,56.08
2022-12-18T11:01:57.211Z,57.01
2022-12-18T11:04:29.621Z,56.26
2022-12-18T11:07:04.952Z,56.50
2022-12-18T11:09:36.863Z,56.35
2022-12-18T11:12:23.574Z,56.58
2022-12-18T11:14:52.737Z,55.87
2022-12-18T11:17:37.114Z,56.29
2022-12-18T11:20:21.364Z,56.08
2022-12-18T11:22:59.812Z,56.13
2022-12-18T11:25:35.441Z,55.17
2022-12-18T11:28:27.094Z,54.46
2022-12-18T11:31:20.853Z,54.77
2022-12-18T11:34:26.763Z,55.24
2022-12-18T11:36:48.967Z,55.99
2022-12-18T11:39:34.226Z,55.34
2022-12-18T11:42:10.659Z,55.85
2022-12-18T11:44:44.550Z,56.45
2022-12-18T11:47:43.270Z,57.29
2022-12-18T11:50:24.938Z,57.21
2022-12-18T11:52:56.561Z,57.33
2022-12-18T11:55:50.536Z,58.54
2022-12-18T11:58:45.819Z,58.82
2022-12-18T12:01:35.594Z,59.58
2022-12-18T12:04:16.631Z,59.21
2022-12-18T12:07:04.864Z,59.57
2022-12-18T12:09:46.929Z,59.57
2022-12-18T12:12:24.656Z,59.80
2022-12-18T12:15:21.981Z,59.40
2022-12-18T12:17:59.652Z,60.15
2022-12-18T12:20:51.635Z,60.48
2022-12-18T12:23:39.511Z,60.48
2022-12-18T12:26:37.300Z,60.68
2022-12-18T12:29:23.991Z,60.85
2022-12-18T12:32:12.000Z,61.14
2022-12-18T12:35:09.494Z,61.01
2022-12-18T12:38:00.545Z,60.74
2022-12-18T12:43:27.741Z,61.39
2022-12-18T12:46:05.639Z,62.14
2022-12-18T12:48:48.656Z,62.11
2022-12-18T12:51:22.584Z,63.19
2022-12-18T12:53:49.976Z,62.50
2022-12-18T12:56:19.079Z,62.80
2022-12-18T12:59:12.225Z,62.97
2022-12-18T13:01:48.426Z,63.54
2022-12-18T13:04:43.188Z,63.11
2022-12-18T13:07:51.992Z,63.02
2022-12-18T13:10:20.628Z,62.90
2022-12-18T13:12:58.059Z,63.15
2022-12-18T13:15:26.408Z,63.09
2022-12-18T13:18:11.134Z,63.10
2022-12-18T13:20:42.523Z,62.08
2022-12-18T13:23:40.964Z,61.61
2022-12-18T13:26:07.590Z,61.57
2022-12-18T13:28:34.813Z,61.30
2022-12-18T13:31:02.562Z,61.65
2022-12-18T13:33:34.843Z,61.94
2022-12-18T13:36:10.088Z,61.73
2022-12-18T13:38:38.724Z,62.07
2022-12-18T13:41:14.056Z,61.50
2022-12-18T13:43:44.601Z,61.49
2022-12-18T13:46:37.503Z,61.88
2022-12-18T13:49:13.054Z,62.40
2022-12-18T13:51:43.811Z,62.32
2022-12-18T13:54:35.425Z,62.57
2022-12-18T13:57:03.369Z,62.50
2022-12-18T13:59:39.597Z,61.97
2022-12-18T14:02:22.466Z,62.11
2022-12-18T14:04:50.524Z,62.41
2022-12-18T14:07:22.940Z,62.26
2022-12-18T14:09:58.131Z,62.79
2022-12-18T14:12:50.995Z,62.21
2022-12-18T14:15:31.943Z,62.25
2022-12-18T14:17:58.680Z,61.82
2022-12-18T14:20:30.569Z,62.09
2022-12-18T14:22:58.853Z,61.79
2022-12-18T14:25:31.113Z,62.03
2022-12-18T14:28:15.236Z,61.95
2022-12-18T14:30:46.920Z,62.15
2022-12-18T14:33:28.352Z,62.76
2022-12-18T14:35:56.543Z,62.64
2022-12-18T14:38:36.026Z,62.48
2022-12-18T14:41:05.764Z,62.64
2022-12-18T14:43:37.407Z,62.55
2022-12-18T14:46:06.773Z,63.28
2022-12-18T14:48:33.708Z,62.40
2022-12-18T14:51:06.108Z,61.91
2022-12-18T14:53:42.162Z,62.11
2022-12-18T14:56:16.637Z,62.48
2022-12-18T14:59:04.391Z,62.26
2022-12-18T15:01:35.501Z,62.35
2022-12-18T15:04:03.921Z,62.68
2022-12-18T15:06:34.175Z,62.50
2022-12-18T15:09:03.055Z,62.32
2022-12-18T15:11:35.768Z,62.77
2022-12-18T15:14:30.913Z,62.75
2022-12-18T15:16:59.187Z,62.92
2022-12-18T15:19:39.665Z,62.61
2022-12-18T15:22:18.532Z,62.51
2022-12-18T15:24:45.037Z,62.81
2022-12-18T15:27:31.169Z,62.62
2022-12-18T15:30:10.545Z,62.64
2022-12-18T15:32:38.396Z,63.20
2022-12-18T15:35:18.595Z,63.30
2022-12-18T15:37:45.999Z,62.99
2022-12-18T15:40:14.823Z,62.97
2022-12-18T15:43:03.394Z,63.39
2022-12-18T15:45:29.850Z,63.66
2022-12-18T15:47:56.612Z,63.54
2022-12-18T15:50:23.247Z,63.76
2022-12-18T15:52:52.076Z,64.06
2022-12-18T15:55:40.328Z,64.28
2022-12-18T15:58:09.220Z,64.05
2022-12-18T16:00:38.953Z,64.36
2022-12-18T16:03:06.277Z,64.35
2022-12-18T16:05:32.854Z,64.41
2022-12-18T16:07:59.360Z,64.81
2022-12-18T16:10:27.145Z,64.49
2022-12-18T16:12:53.576Z,64.72
2022-12-18T16:15:24.524Z,65.37
2022-12-18T16:17:51.543Z,64.89
2022-12-18T16:20:21.557Z,65.35
2022-12-18T16:22:49.224Z,65.41
2022-12-18T16:25:28.231Z,66.19
2022-12-18T16:27:56.224Z,66.44
2022-12-18T16:30:26.379Z,66.33
2022-12-18T16:32:52.873Z,66.80
2022-12-18T16:35:19.483Z,67.07
2022-12-18T16:37:45.863Z,67.09
2022-12-18T16:40:15.040Z,67.20
2022-12-18T16:42:42.932Z,67.31
2022-12-18T16:45:11.858Z,67.40
2022-12-18T16:47:39.786Z,67.30
2022-12-18T16:50:07.211Z,68.40
2022-12-18T16:52:33.982Z,68.30
2022-12-18T16:55:00.418Z,68.77
2022-12-18T16:57:26.905Z,68.49
2022-12-18T16:59:53.315Z,68.92
2022-12-18T17:02:24.875Z,69.08
2022-12-18T17:04:57.106Z,69.45
2022-12-18T17:07:24.877Z,69.81
2022-12-18T17:09:51.366Z,69.86
2022-12-18T17:12:18.088Z,70.56
2022-12-18T17:14:45.072Z,70.40
2022-12-18T17:17:26.935Z,70.65
2022-12-18T17:19:53.388Z,70.83
2022-12-18T17:22:20.899Z,70.75
2022-12-18T17:24:47.774Z,71.32
2022-12-18T17:27:14.187Z,71.52
2022-12-18T17:29:46.760Z,71.39
2022-12-18T17:32:14.648Z,70.97
2022-12-18T17:34:41.168Z,71.22
2022-12-18T17:37:07.883Z,71.32
2022-12-18T17:39:34.405Z,71.57
2022-12-18T17:42:01.193Z,71.58
2022-12-18T17:44:27.674Z,71.81
2022-12-18T17:46:54.139Z,71.96
2022-12-18T17:49:21.487Z,72.13
2022-12-18T17:51:47.854Z,71.68
2022-12-18T17:54:14.424Z,71.83
2022-12-18T17:56:40.814Z,71.93
2022-12-18T17:59:07.615Z,72.34
2022-12-18T18:01:37.363Z,72.18
2022-12-18T18:04:07.717Z,72.67
2022-12-18T18:06:34.448Z,72.61
2022-12-18T18:09:03.881Z,72.50
2022-12-18T18:11:49.202Z,72.42
2022-12-18T18:14:19.880Z,72.29
2022-12-18T18:16:49.128Z,72.88
2022-12-18T18:19:18.251Z,72.50
2022-12-18T18:21:47.067Z,72.56
2022-12-18T18:24:15.790Z,72.43
2022-12-18T18:26:42.592Z,72.52
2022-12-18T18:29:16.415Z,72.80
2022-12-18T18:31:43.797Z,72.49
2022-12-18T18:34:25.310Z,72.81
2022-12-18T18:36:52.105Z,72.46
2022-12-18T18:39:19.507Z,72.76
2022-12-18T18:41:47.943Z,72.97
2022-12-18T18:44:15.656Z,72.74
2022-12-18T18:46:42.024Z,72.53
2022-12-18T18:49:08.481Z,72.96
2022-12-18T18:51:35.498Z,72.99
2022-12-18T18:54:02.039Z,73.07
2022-12-18T18:59:15.152Z,73.02
2022-12-18T19:01:41.887Z,72.98
2022-12-18T19:04:08.388Z,73.38
2022-12-18T19:06:34.778Z,73.27
2022-12-18T19:09:02.853Z,73.00
2022-12-18T19:11:48.325Z,73.73
2022-12-18T19:14:15.677Z,73.54
2022-12-18T19:16:43.514Z,73.19
2022-12-18T19:19:10.664Z,73.35
2022-12-18T19:21:38.248Z,73.54
2022-12-18T19:24:05.573Z,72.66
2022-12-18T19:26:32.217Z,72.98
2022-12-18T19:29:03.599Z,72.91
2022-12-18T19:31:35.266Z,73.31
2022-12-18T19:34:03.822Z,73.08
2022-12-18T19:36:33.263Z,73.36
2022-12-18T19:39:01.337Z,72.64
2022-12-18T19:41:31.088Z,72.82
2022-12-18T19:43:58.418Z,72.91
2022-12-18T19:46:24.963Z,72.25
2022-12-18T19:48:52.130Z,72.51
2022-12-18T19:51:27.196Z,72.33
2022-12-18T19:53:58.901Z,72.53
2022-12-18T19:56:33.260Z,72.19
2022-12-18T19:59:00.352Z,72.21
2022-12-18T20:01:28.770Z,72.28
2022-12-18T20:03:58.086Z,72.33
2022-12-18T20:06:36.667Z,71.99
2022-12-18T20:09:06.575Z,71.83
2022-12-18T20:11:41.397Z,71.83
2022-12-18T20:14:09.249Z,71.70
2022-12-18T20:16:35.881Z,71.76
2022-12-18T20:19:02.422Z,71.70
2022-12-18T20:21:29.370Z,71.76
2022-12-18T20:23:56.060Z,71.95
2022-12-18T20:26:23.835Z,72.20
2022-12-18T20:28:50.306Z,72.76
2022-12-18T20:31:16.657Z,72.63
2022-12-18T20:33:44.537Z,73.20
2022-12-18T20:36:22.627Z,73.86
2022-12-18T20:38:57.303Z,73.36
2022-12-18T20:41:25.899Z,74.16
2022-12-18T20:43:54.039Z,74.30
2022-12-18T20:46:20.731Z,73.85
2022-12-18T20:48:48.032Z,73.83
2022-12-18T20:51:17.304Z,73.73
2022-12-18T20:53:44.553Z,73.99
2022-12-18T20:56:15.014Z,74.31
2022-12-18T20:58:45.748Z,73.81
2022-12-18T21:01:17.742Z,73.33
2022-12-18T21:03:48.761Z,73.05
2022-12-18T21:06:17.931Z,73.27
2022-12-18T21:08:44.974Z,72.89
2022-12-18T21:11:35.981Z,73.20
2022-12-18T21:14:13.489Z,73.23
2022-12-18T21:16:40.756Z,72.92
2022-12-18T21:19:07.250Z,72.93
2022-12-18T21:21:35.870Z,73.03
2022-12-18T21:24:05.995Z,72.66
2022-12-18T21:26:32.372Z,72.66
2022-12-18T21:29:01.411Z,73.37
2022-12-18T21:31:31.565Z,72.97
2022-12-18T21:34:02.171Z,73.58
2022-12-18T21:36:29.642Z,73.59
2022-12-18T21:38:57.226Z,73.89
2022-12-18T21:41:43.967Z,75.14
2022-12-18T21:44:15.305Z,74.88
2022-12-18T21:46:44.715Z,75.85
2022-12-18T21:49:14.447Z,76.47
2022-12-18T21:51:41.805Z,75.49
2022-12-18T21:54:08.221Z,76.03
2022-12-18T21:56:53.054Z,76.03
2022-12-18T21:59:26.405Z,77.03
2022-12-18T22:01:54.637Z,76.99
2022-12-18T22:04:21.735Z,77.74
2022-12-18T22:06:49.090Z,77.54
2022-12-18T22:09:18.729Z,78.08
2022-12-18T22:11:45.695Z,78.41
2022-12-18T22:14:13.637Z,79.08
2022-12-18T22:16:40.509Z,79.24
2022-12-18T22:19:07.788Z,79.76
2022-12-18T22:21:36.143Z,79.98
2022-12-18T22:24:06.057Z,79.94
2022-12-18T22:26:39.447Z,80.87
2022-12-18T22:29:26.266Z,81.22
2022-12-18T22:31:52.672Z,80.95
2022-12-18T22:34:22.844Z,80.85
2022-12-18T22:36:50.655Z,81.38
2022-12-18T22:39:25.468Z,81.95
2022-12-18T22:41:52.206Z,82.48
2022-12-18T22:44:19.398Z,82.98
2022-12-18T22:46:53.999Z,82.45
2022-12-18T22:49:32.299Z,82.69
2022-12-18T22:52:00.341Z,82.97
2022-12-18T22:54:26.701Z,84.32
2022-12-18T22:56:53.067Z,84.14
2022-12-18T22:59:23.249Z,84.38
2022-12-18T23:01:51.453Z,84.76
2022-12-18T23:04:28.381Z,84.63
2022-12-18T23:06:57.601Z,84.52
2022-12-18T23:09:24.152Z,84.38
2022-12-18T23:11:50.793Z,85.39
2022-12-18T23:14:17.281Z,86.24
2022-12-18T23:16:43.765Z,85.69
2022-12-18T23:19:12.593Z,86.02
2022-12-18T23:21:39.291Z,86.32
2022-12-18T23:24:06.106Z,86.27
2022-12-18T23:26:32.500Z,86.40
2022-12-18T23:28:58.942Z,86.08
2022-12-18T23:31:28.349Z,86.72
2022-12-18T23:33:57.092Z,86.53
2022-12-18T23:36:24.212Z,86.74
2022-12-18T23:38:55.385Z,87.17
2022-12-18T23:41:23.907Z,87.18
2022-12-18T23:43:50.730Z,87.16
2022-12-18T23:46:24.101Z,86.59
2022-12-18T23:48:51.745Z,86.37
2022-12-18T23:51:20.520Z,86.18
2022-12-18T23:53:46.848Z,86.58
2022-12-18T23:56:14.579Z,86.13
2022-12-18T23:58:42.183Z,86.74
